Time;durP1;ratioP1;P1;durP2;ratioP2;P2;SDS_P1;SDS_P2;PMS_P1;PMS_P2;Temp;Humidity;BMP_temperature;BMP_pressure;BME280_temperature;BME280_humidity;BME280_pressure;Samples;Min_cycle;Max_cycle;Signal;HPM_P1;HPM_P2
2022/05/25 00:02:47;;;;;;;2.80;2.40;;;15.40;99.90;;;;;;8343224;28;20267;-81
2022/05/25 00:06:48;;;;;;;2.83;2.57;;;15.40;99.90;;;;;;8328483;28;20216;-78
2022/05/25 00:10:49;;;;;;;2.97;2.67;;;15.30;99.90;;;;;;8330654;28;20189;-80
2022/05/25 00:14:50;;;;;;;2.63;2.30;;;15.30;99.90;;;;;;8324906;28;20194;-80
2022/05/25 00:23:10;;;;;;;2.67;2.40;;;15.30;99.90;;;;;;8342407;28;20252;-80
2022/05/25 00:27:11;;;;;;;2.53;2.33;;;15.30;99.90;;;;;;8328901;28;20189;-80
2022/05/25 00:31:12;;;;;;;4.27;2.30;;;15.30;99.90;;;;;;8322846;28;20289;-79
2022/05/25 00:35:16;;;;;;;2.47;2.10;;;15.30;99.90;;;;;;8326434;28;20230;-80
2022/05/25 00:39:17;;;;;;;2.50;2.20;;;15.30;99.90;;;;;;8325562;28;20216;-81
2022/05/25 00:43:18;;;;;;;2.83;2.53;;;15.30;99.90;;;;;;8344934;28;20233;-80
2022/05/25 00:47:25;;;;;;;3.70;2.40;;;15.20;99.90;;;;;;8341602;28;20182;-79
2022/05/25 00:51:52;;;;;;;2.57;2.30;;;15.20;99.90;;;;;;8329865;28;20190;-80
2022/05/25 00:55:58;;;;;;;2.60;2.33;;;15.20;99.90;;;;;;8317808;28;20197;-80
2022/05/25 01:00:12;;;;;;;3.37;2.40;;;15.20;99.90;;;;;;8329225;28;20281;-80
2022/05/25 01:04:15;;;;;;;2.77;2.20;;;15.20;99.90;;;;;;8332814;28;20205;-78
2022/05/25 01:08:21;;;;;;;2.50;2.30;;;15.10;99.90;;;;;;8330328;28;20182;-80
2022/05/25 01:12:44;;;;;;;2.50;2.30;;;15.00;99.90;;;;;;8331484;28;20185;-79
2022/05/25 01:17:17;;;;;;;2.87;2.67;;;14.90;99.90;;;;;;8327545;28;20214;-79
2022/05/25 01:21:25;;;;;;;4.00;2.90;;;14.90;99.90;;;;;;8326259;28;20186;-80
2022/05/25 01:25:39;;;;;;;2.80;2.60;;;14.80;99.90;;;;;;8326697;28;20221;-78
2022/05/25 01:29:59;;;;;;;3.47;3.10;;;14.80;99.90;;;;;;8347372;28;20210;-79
2022/05/25 01:34:23;;;;;;;3.37;3.07;;;14.80;99.90;;;;;;8342481;28;20225;-78
2022/05/25 01:38:30;;;;;;;4.20;3.37;;;14.70;99.90;;;;;;8332744;28;20177;-78
2022/05/25 01:42:39;;;;;;;4.43;3.30;;;14.70;99.90;;;;;;8343484;28;20213;-79
2022/05/25 01:46:48;;;;;;;3.07;2.37;;;14.70;99.90;;;;;;8331020;28;20248;-80
2022/05/25 01:50:57;;;;;;;3.17;2.83;;;14.70;99.90;;;;;;8330839;28;20182;-78
2022/05/25 01:55:05;;;;;;;3.90;3.23;;;14.70;99.90;;;;;;8328701;28;20194;-80
2022/05/25 01:59:12;;;;;;;3.10;2.80;;;14.60;99.90;;;;;;8331726;28;20221;-79
2022/05/25 02:07:59;;;;;;;3.07;2.50;;;14.50;99.90;;;;;;8346669;28;20209;-79
2022/05/25 02:12:12;;;;;;;3.03;2.50;;;14.50;99.90;;;;;;8329720;28;20177;-80
2022/05/25 02:16:42;;;;;;;3.50;2.37;;;14.50;99.90;;;;;;8344290;28;20178;-80
2022/05/25 02:20:54;;;;;;;2.60;2.40;;;14.50;99.90;;;;;;8304852;28;20193;-79
2022/05/25 02:25:14;;;;;;;3.87;2.90;;;14.40;99.90;;;;;;8337966;28;20218;-78
2022/05/25 02:29:18;;;;;;;2.90;2.60;;;14.40;99.90;;;;;;8329938;28;20210;-80
2022/05/25 02:33:28;;;;;;;3.10;2.80;;;14.30;99.90;;;;;;8335364;28;20237;-78
2022/05/25 02:37:32;;;;;;;3.47;3.00;;;14.30;99.90;;;;;;8344512;28;20240;-80
2022/05/25 02:41:42;;;;;;;3.13;2.67;;;14.40;99.90;;;;;;8344178;28;20285;-80
2022/05/25 02:45:43;;;;;;;4.37;3.07;;;14.40;99.90;;;;;;8328586;28;20328;-80
2022/05/25 02:49:44;;;;;;;2.80;2.60;;;14.40;99.90;;;;;;8326927;28;20193;-79
2022/05/25 02:53:45;;;;;;;2.90;2.40;;;14.40;99.90;;;;;;8326154;28;20233;-79
2022/05/25 02:57:46;;;;;;;3.20;2.50;;;14.40;99.90;;;;;;8330346;28;20270;-79
2022/05/25 03:01:47;;;;;;;3.37;2.70;;;14.40;99.90;;;;;;8331368;28;20253;-79
2022/05/25 03:05:48;;;;;;;3.63;2.73;;;14.40;99.90;;;;;;8332740;28;20237;-79
2022/05/25 03:09:50;;;;;;;2.63;2.43;;;14.30;99.90;;;;;;8325692;28;20189;-76
2022/05/25 03:13:51;;;;;;;3.40;3.10;;;14.30;99.90;;;;;;8330024;28;20190;-77
2022/05/25 03:17:52;;;;;;;3.70;3.10;;;14.20;99.90;;;;;;8321728;28;20624;-79
2022/05/25 03:21:53;;;;;;;3.17;2.87;;;14.20;99.90;;;;;;8333719;28;20189;-77
2022/05/25 03:25:54;;;;;;;3.13;2.83;;;14.20;99.90;;;;;;8330038;28;20217;-77
2022/05/25 03:29:54;;;;;;;2.73;2.53;;;14.20;99.90;;;;;;8329434;28;20201;-76
2022/05/25 03:33:55;;;;;;;2.80;2.60;;;14.10;99.90;;;;;;8321058;28;20185;-79
2022/05/25 03:37:58;;;;;;;3.33;2.50;;;14.10;99.90;;;;;;8340517;28;20181;-75
2022/05/25 03:42:04;;;;;;;3.27;2.40;;;14.20;99.90;;;;;;8326995;28;20228;-75
2022/05/25 03:46:05;;;;;;;2.60;2.40;;;14.20;99.90;;;;;;8333084;28;20214;-79
2022/05/25 03:50:07;;;;;;;4.07;3.37;;;14.30;99.90;;;;;;8324885;28;20182;-79
2022/05/25 03:54:08;;;;;;;2.97;2.63;;;14.30;99.90;;;;;;8348655;28;20190;-79
2022/05/25 03:58:10;;;;;;;2.83;2.60;;;14.30;99.90;;;;;;8330440;28;20189;-77
2022/05/25 04:02:11;;;;;;;2.70;2.50;;;14.30;99.90;;;;;;8328149;28;20187;-81
2022/05/25 04:06:12;;;;;;;3.27;2.97;;;14.40;99.90;;;;;;8326409;28;20260;-75
2022/05/25 04:10:18;;;;;;;4.30;3.23;;;14.40;99.90;;;;;;8326979;28;20213;-78
2022/05/25 04:14:19;;;;;;;3.77;2.80;;;14.40;99.90;;;;;;8323084;28;20186;-76
2022/05/25 04:18:20;;;;;;;3.17;2.70;;;14.50;99.90;;;;;;8338944;28;20182;-77
2022/05/25 04:22:20;;;;;;;3.33;2.50;;;14.60;99.90;;;;;;8345838;28;20189;-79
2022/05/25 04:26:22;;;;;;;2.27;2.07;;;14.80;99.90;;;;;;8324199;28;20189;-78
2022/05/25 04:30:25;;;;;;;3.63;2.10;;;14.90;99.90;;;;;;8323951;28;20201;-79
2022/05/25 04:34:26;;;;;;;3.97;2.30;;;15.00;99.90;;;;;;8321974;28;20187;-77
2022/05/25 04:38:27;;;;;;;2.40;2.20;;;15.10;99.90;;;;;;8329259;28;20488;-75
2022/05/25 04:42:29;;;;;;;2.97;2.17;;;15.00;99.90;;;;;;8329857;28;20183;-79
2022/05/25 04:46:30;;;;;;;3.47;2.30;;;15.00;99.90;;;;;;8324592;28;20186;-78
2022/05/25 04:50:34;;;;;;;2.10;2.00;;;14.90;99.90;;;;;;8334683;28;20226;-75
2022/05/25 04:54:34;;;;;;;1.80;1.70;;;14.90;99.90;;;;;;8324306;28;20201;-79
2022/05/25 04:58:39;;;;;;;3.20;2.10;;;14.90;99.90;;;;;;8322903;28;20218;-76
2022/05/25 05:02:40;;;;;;;3.10;2.27;;;14.90;99.90;;;;;;8332607;28;20481;-79
2022/05/25 05:06:44;;;;;;;2.20;2.00;;;14.90;99.90;;;;;;8340177;28;20186;-80
2022/05/25 05:10:45;;;;;;;2.30;2.10;;;14.90;99.90;;;;;;8326019;28;20205;-76
2022/05/25 05:14:46;;;;;;;3.03;1.97;;;15.00;99.90;;;;;;8327334;28;20218;-78
2022/05/25 05:18:47;;;;;;;2.13;2.00;;;15.10;99.90;;;;;;8333547;28;20182;-78
2022/05/25 05:22:48;;;;;;;1.87;1.77;;;15.10;99.90;;;;;;8352503;28;20199;-75
2022/05/25 05:26:49;;;;;;;1.90;1.80;;;15.10;99.90;;;;;;8334921;28;20189;-76
2022/05/25 05:30:55;;;;;;;2.20;1.97;;;15.10;99.90;;;;;;8342038;28;20205;-75
2022/05/25 05:34:59;;;;;;;2.67;2.40;;;15.10;99.90;;;;;;8328120;28;20197;-75
2022/05/25 05:39:03;;;;;;;2.13;1.93;;;15.10;99.90;;;;;;8332496;28;20210;-78
2022/05/25 05:43:06;;;;;;;2.90;2.03;;;15.20;99.90;;;;;;8328848;28;20210;-77
2022/05/25 05:47:11;;;;;;;3.17;2.40;;;15.30;99.90;;;;;;8330576;28;20269;-79
2022/05/25 05:51:12;;;;;;;3.10;2.80;;;15.30;99.90;;;;;;8343316;28;20265;-74
2022/05/25 05:55:13;;;;;;;3.53;3.23;;;15.30;99.90;;;;;;8333608;28;20187;-75
2022/05/25 05:59:14;;;;;;;8.10;3.33;;;15.40;99.90;;;;;;8327524;28;20198;-77
2022/05/25 06:03:15;;;;;;;3.63;2.60;;;15.50;99.90;;;;;;8331456;28;20209;-78
2022/05/25 06:07:16;;;;;;;3.83;2.60;;;15.70;99.90;;;;;;8345463;28;20194;-76
2022/05/25 06:11:18;;;;;;;1.90;1.80;;;16.00;99.90;;;;;;8326187;28;20396;-75
2022/05/25 06:19:38;;;;;;;2.70;2.50;;;16.50;99.90;;;;;;8343833;28;20193;-79
2022/05/25 06:23:39;;;;;;;2.40;2.20;;;16.70;99.90;;;;;;8324138;28;20210;-78
2022/05/25 06:27:41;;;;;;;2.90;2.63;;;16.90;18.40;;;;;;8342218;28;20186;-77
2022/05/25 06:31:41;;;;;;;3.07;1.70;;;17.10;1.00;;;;;;8327742;28;20179;-76
2022/05/25 06:35:42;;;;;;;3.33;2.60;;;17.30;1.00;;;;;;8343921;28;20217;-78
2022/05/25 06:39:43;;;;;;;5.23;2.00;;;17.50;1.00;;;;;;8344522;28;20210;-77
2022/05/25 06:43:45;;;;;;;4.23;2.37;;;17.70;99.90;;;;;;8330634;28;20221;-75
2022/05/25 06:47:45;;;;;;;4.00;2.33;;;17.80;99.90;;;;;;8326303;28;20193;-76
2022/05/25 06:51:46;;;;;;;3.97;1.80;;;18.00;50.50;;;;;;8340710;28;20435;-78
2022/05/25 06:55:47;;;;;;;2.23;1.80;;;18.30;99.90;;;;;;8341184;28;20186;-76
2022/05/25 06:59:48;;;;;;;2.40;1.83;;;18.60;99.90;;;;;;8330569;28;20262;-78
2022/05/25 07:03:52;;;;;;;3.20;1.90;;;18.70;1.00;;;;;;8324530;28;20296;-77
2022/05/25 07:07:52;;;;;;;2.90;1.77;;;18.90;99.90;;;;;;8321884;28;20205;-78
2022/05/25 07:11:53;;;;;;;3.90;1.90;;;19.30;99.90;;;;;;8323247;28;20184;-79
2022/05/25 07:15:56;;;;;;;5.60;1.93;;;19.50;99.90;;;;;;8341737;28;20673;-79
2022/05/25 07:19:57;;;;;;;2.97;1.57;;;19.70;1.30;;;;;;8331709;28;20190;-76
2022/05/25 07:24:00;;;;;;;3.07;1.93;;;19.80;45.70;;;;;;8332218;28;20201;-76
2022/05/25 07:28:01;;;;;;;3.40;1.80;;;19.80;1.00;;;;;;8322876;28;20187;-78
2022/05/25 07:32:06;;;;;;;2.67;1.80;;;19.80;1.00;;;;;;8334016;28;20276;-76
2022/05/25 07:36:10;;;;;;;2.40;1.80;;;19.80;1.00;;;;;;8348320;28;20301;-76
2022/05/25 07:40:18;;;;;;;1.67;1.43;;;19.70;1.00;;;;;;8342029;28;20236;-76
2022/05/25 07:44:26;;;;;;;2.60;1.83;;;19.70;1.00;;;;;;8324709;28;20305;-77
2022/05/25 07:48:27;;;;;;;1.50;1.40;;;19.70;1.00;;;;;;8320607;28;20297;-76
2022/05/25 07:52:32;;;;;;;2.90;1.60;;;19.60;1.00;;;;;;8341111;28;20188;-77
2022/05/25 07:56:36;;;;;;;2.23;1.40;;;19.50;1.00;;;;;;8327985;28;20213;-76
2022/05/25 08:00:37;;;;;;;3.60;2.30;;;19.50;1.00;;;;;;8329482;28;20200;-77
2022/05/25 08:08:59;;;;;;;4.07;1.97;;;19.50;3.80;;;;;;8345103;28;20197;-75
2022/05/25 08:13:01;;;;;;;2.97;1.63;;;19.50;1.00;;;;;;8322908;28;20214;-78
2022/05/25 08:17:04;;;;;;;3.83;1.70;;;19.40;1.00;;;;;;8321053;28;20214;-75
2022/05/25 08:21:05;;;;;;;3.80;1.40;;;19.40;1.00;;;;;;8322770;28;20186;-77
2022/05/25 08:25:12;;;;;;;1.90;1.37;;;19.40;13.90;;;;;;8334445;28;20244;-79
2022/05/25 08:29:13;;;;;;;3.23;1.97;;;19.50;51.50;;;;;;8338696;28;20213;-76
2022/05/25 08:33:17;;;;;;;2.53;1.80;;;19.60;1.50;;;;;;8343783;28;20191;-74
2022/05/25 08:37:18;;;;;;;4.53;2.53;;;19.70;7.60;;;;;;8341862;28;20191;-77
2022/05/25 08:41:47;;;;;;;3.47;2.57;;;19.80;61.60;;;;;;8326540;28;20206;-77
2022/05/25 08:45:53;;;;;;;3.70;2.20;;;19.70;99.90;;;;;;8329364;28;20269;-79
2022/05/25 08:49:55;;;;;;;5.43;2.90;;;19.70;99.90;;;;;;8321380;28;20262;-76
2022/05/25 08:54:01;;;;;;;5.90;2.77;;;19.60;99.90;;;;;;8323388;28;20197;-77
2022/05/25 08:58:02;;;;;;;2.20;1.63;;;19.60;99.90;;;;;;8343821;28;20186;-77
2022/05/25 09:02:21;;;;;;;2.23;1.90;;;19.90;99.90;;;;;;8320781;28;20193;-79
2022/05/25 09:06:58;;;;;;;1.60;1.50;;;20.70;99.90;;;;;;8342634;28;20578;-79
2022/05/25 09:11:09;;;;;;;3.77;1.93;;;21.40;1.00;;;;;;8343324;28;20188;-75
2022/05/25 09:15:17;;;;;;;2.73;1.67;;;21.70;99.90;;;;;;8341544;28;20182;-77
2022/05/25 09:19:28;;;;;;;2.00;1.10;;;21.30;99.90;;;;;;8332772;28;20429;-76
2022/05/25 09:23:29;;;;;;;4.77;1.53;;;21.20;99.90;;;;;;8328260;28;20583;-76
2022/05/25 09:27:46;;;;;;;2.47;1.00;;;21.20;99.90;;;;;;8349108;28;20187;-75
2022/05/25 09:31:52;;;;;;;1.33;1.00;;;21.10;99.90;;;;;;8325050;28;20194;-79
2022/05/25 09:36:01;;;;;;;4.30;1.70;;;21.10;99.90;;;;;;8335571;28;20187;-76
2022/05/25 09:40:28;;;;;;;4.60;1.50;;;21.10;99.90;;;;;;8348228;28;20229;-76
2022/05/25 09:44:30;;;;;;;3.90;1.80;;;20.90;99.90;;;;;;8309061;28;20265;-78
2022/05/25 09:48:34;;;;;;;3.40;1.80;;;20.70;99.90;;;;;;8322057;28;20186;-76
2022/05/25 09:52:48;;;;;;;2.23;1.90;;;20.20;99.90;;;;;;8327016;28;20281;-77
2022/05/25 09:57:09;;;;;;;5.50;1.90;;;20.00;1.00;;;;;;8320668;28;20186;-76
2022/05/25 10:01:19;;;;;;;2.80;1.43;;;19.80;1.00;;;;;;8334187;28;20179;-75
2022/05/25 10:05:27;;;;;;;4.07;1.43;;;19.40;1.00;;;;;;8352092;28;20221;-75
2022/05/25 10:09:29;;;;;;;3.70;1.50;;;19.10;1.00;;;;;;8348051;28;20183;-77
2022/05/25 10:13:38;;;;;;;1.30;1.20;;;18.90;1.00;;;;;;8328040;28;20228;-79
2022/05/25 10:17:46;;;;;;;3.87;1.70;;;18.80;99.90;;;;;;8330186;28;20187;-78
2022/05/25 10:21:56;;;;;;;1.97;1.50;;;18.60;99.90;;;;;;8334575;28;20201;-79
2022/05/25 10:26:19;;;;;;;2.33;1.50;;;18.50;99.90;;;;;;8323446;28;20214;-75
2022/05/25 10:39:14;;;;;;;2.40;1.90;;;18.30;99.90;;;;;;8344711;28;20434;-81
2022/05/25 10:43:17;;;;;;;2.70;2.00;;;18.40;99.90;;;;;;8348320;28;20313;-80
2022/05/25 10:47:33;;;;;;;4.80;1.50;;;18.50;99.90;;;;;;8334543;28;20202;-77
2022/05/25 10:51:45;;;;;;;2.10;1.67;;;18.60;99.90;;;;;;8332709;28;20228;-78
2022/05/25 10:55:46;;;;;;;2.83;1.67;;;18.70;99.90;;;;;;8330439;28;20466;-75
2022/05/25 11:00:20;;;;;;;1.80;1.47;;;18.80;96.00;;;;;;8341178;28;20201;-79
2022/05/25 11:04:33;;;;;;;1.40;1.20;;;18.70;99.90;;;;;;8345165;28;20202;-75
2022/05/25 11:08:54;;;;;;;2.10;1.40;;;18.70;99.90;;;;;;8342712;28;20186;-75
2022/05/25 11:13:26;;;;;;;5.53;2.00;;;18.70;99.90;;;;;;8341420;28;20182;-79
2022/05/25 11:17:27;;;;;;;1.63;1.30;;;18.70;99.90;;;;;;8324176;28;20392;-75
2022/05/25 11:21:43;;;;;;;1.87;1.67;;;18.60;99.90;;;;;;8341515;28;20217;-78
2022/05/25 11:25:54;;;;;;;2.00;1.77;;;18.70;99.90;;;;;;8326352;28;20213;-79
2022/05/25 11:30:18;;;;;;;3.00;1.50;;;18.70;99.90;;;;;;8333947;28;20209;-75
2022/05/25 11:34:36;;;;;;;3.37;1.60;;;18.70;99.90;;;;;;8338892;28;20490;-79
2022/05/25 11:38:43;;;;;;;1.50;1.40;;;19.00;99.90;;;;;;8320550;28;20198;-75
2022/05/25 11:43:12;;;;;;;3.50;1.23;;;19.10;99.90;;;;;;8342571;28;20182;-78
2022/05/25 11:47:30;;;;;;;2.47;1.40;;;19.30;1.00;;;;;;8325065;28;20193;-75
2022/05/25 11:51:42;;;;;;;1.80;1.33;;;19.50;1.00;;;;;;8341266;28;20211;-76
2022/05/25 11:56:11;;;;;;;2.50;1.53;;;19.50;1.00;;;;;;8329526;28;20197;-78
2022/05/25 12:00:27;;;;;;;2.43;1.03;;;19.70;1.00;;;;;;8352881;28;20186;-76
2022/05/25 12:04:58;;;;;;;2.33;0.97;;;20.00;99.90;;;;;;8323689;28;20246;-76
2022/05/25 12:09:09;;;;;;;2.33;1.27;;;20.20;99.90;;;;;;8340466;28;20186;-76
2022/05/25 12:13:27;;;;;;;1.67;1.30;;;20.50;99.90;;;;;;8329077;28;20183;-76
2022/05/25 12:17:37;;;;;;;1.63;1.10;;;20.70;99.90;;;;;;8325686;28;20712;-77
2022/05/25 12:21:45;;;;;;;1.47;0.77;;;20.80;1.00;;;;;;8336870;28;20275;-77
2022/05/25 12:25:55;;;;;;;5.27;1.20;;;21.10;1.00;;;;;;8339402;28;20210;-77
2022/05/25 12:30:05;;;;;;;0.80;0.80;;;21.50;1.00;;;;;;8339239;28;20259;-76
2022/05/25 12:34:09;;;;;;;2.23;0.80;;;21.60;99.90;;;;;;8322923;28;20189;-79
2022/05/25 12:38:11;;;;;;;1.47;0.87;;;21.60;99.90;;;;;;8320207;28;20182;-77
2022/05/25 12:42:24;;;;;;;1.77;0.93;;;21.70;99.90;;;;;;8331810;28;20206;-76
2022/05/25 12:51:44;;;;;;;2.10;1.20;;;22.00;99.90;;;;;;8321466;28;20196;-80
2022/05/25 12:55:56;;;;;;;3.10;0.63;;;22.10;99.90;;;;;;8329400;28;20257;-77
2022/05/25 12:59:58;;;;;;;1.20;0.80;;;22.10;99.90;;;;;;8333040;28;20221;-78
2022/05/25 13:04:02;;;;;;;1.77;0.53;;;22.20;99.90;;;;;;8345124;28;20206;-78
2022/05/25 13:08:03;;;;;;;1.07;0.47;;;22.20;99.90;;;;;;8336351;28;20205;-80
2022/05/25 13:12:38;;;;;;;0.93;0.50;;;22.00;99.90;;;;;;8332917;28;20508;-80
2022/05/25 13:16:42;;;;;;;2.70;0.73;;;21.70;94.20;;;;;;8332445;28;20190;-77
2022/05/25 13:20:49;;;;;;;2.50;0.50;;;21.80;99.90;;;;;;8333686;28;20182;-79
2022/05/25 13:25:08;;;;;;;0.63;0.40;;;21.90;99.90;;;;;;8333221;28;20209;-77
2022/05/25 13:29:37;;;;;;;0.80;0.37;;;21.90;99.90;;;;;;8341530;28;20269;-79
2022/05/25 13:33:43;;;;;;;1.57;0.57;;;21.70;99.90;;;;;;8333685;28;20183;-77
2022/05/25 13:37:45;;;;;;;0.63;0.40;;;21.80;99.90;;;;;;8325877;28;20194;-78
2022/05/25 13:42:04;;;;;;;1.10;0.60;;;21.60;99.90;;;;;;8329003;28;20210;-79
2022/05/25 13:46:09;;;;;;;0.93;0.40;;;21.40;99.90;;;;;;8326496;28;20218;-78
2022/05/25 13:50:10;;;;;;;4.37;0.70;;;21.10;99.90;;;;;;8328831;28;20263;-76
2022/05/25 13:54:31;;;;;;;0.80;0.50;;;20.70;99.90;;;;;;8329997;28;20187;-80
2022/05/25 13:58:35;;;;;;;1.90;0.40;;;20.40;99.90;;;;;;8348473;28;20199;-77
2022/05/25 14:02:36;;;;;;;1.33;0.30;;;20.40;99.90;;;;;;8329367;28;20518;-80
2022/05/25 14:06:44;;;;;;;0.50;0.23;;;20.30;99.90;;;;;;8322985;28;20213;-79
2022/05/25 14:11:12;;;;;;;1.77;0.40;;;20.20;99.90;;;;;;8335156;28;20189;-76
2022/05/25 14:15:23;;;;;;;2.90;0.50;;;20.20;99.90;;;;;;8334315;28;20282;-76
2022/05/25 14:19:31;;;;;;;1.37;0.40;;;20.20;99.90;;;;;;8332859;28;20190;-80
2022/05/25 14:23:32;;;;;;;2.73;0.60;;;20.30;99.90;;;;;;8331568;28;20232;-78
2022/05/25 14:27:39;;;;;;;1.90;0.27;;;20.30;99.90;;;;;;8332242;28;20186;-79
2022/05/25 14:31:48;;;;;;;1.40;0.50;;;20.40;96.10;;;;;;8327464;28;20196;-77
2022/05/25 14:35:57;;;;;;;2.53;0.50;;;20.40;99.90;;;;;;8326929;28;20248;-80
2022/05/25 14:40:01;;;;;;;2.20;0.50;;;20.40;99.90;;;;;;8325575;28;20210;-77
2022/05/25 14:44:02;;;;;;;0.83;0.50;;;20.40;99.90;;;;;;8339044;28;20278;-77
2022/05/25 14:48:03;;;;;;;1.33;0.40;;;20.50;99.90;;;;;;8326250;28;20197;-79
2022/05/25 14:52:14;;;;;;;0.60;0.40;;;20.60;99.90;;;;;;8326871;28;20208;-76
2022/05/25 14:56:28;;;;;;;0.50;0.30;;;20.70;99.90;;;;;;8331367;28;20187;-79
2022/05/25 15:00:29;;;;;;;0.50;0.40;;;20.70;99.90;;;;;;8323457;28;20195;-76
2022/05/25 15:04:34;;;;;;;1.67;0.47;;;20.70;99.90;;;;;;8354319;28;20313;-76
2022/05/25 15:08:38;;;;;;;1.77;0.70;;;20.80;72.00;;;;;;8319976;28;20178;-77
2022/05/25 15:12:45;;;;;;;0.80;0.40;;;20.80;51.10;;;;;;8327212;28;20203;-76
2022/05/25 15:21:33;;;;;;;1.00;0.70;;;20.70;63.30;;;;;;8341872;28;20259;-77
2022/05/25 15:25:40;;;;;;;1.63;0.40;;;20.80;71.90;;;;;;8345165;28;20642;-76
2022/05/25 15:29:53;;;;;;;0.70;0.40;;;21.00;60.20;;;;;;8348308;28;20197;-77
2022/05/25 15:33:54;;;;;;;4.67;0.53;;;21.40;29.80;;;;;;8325960;28;20260;-77
2022/05/25 15:38:01;;;;;;;3.50;3.07;;;21.50;14.40;;;;;;8326520;28;20258;-77
2022/05/25 15:42:02;;;;;;;1.97;0.70;;;21.50;19.20;;;;;;8333275;28;20208;-79
2022/05/25 15:46:14;;;;;;;0.60;0.40;;;21.40;12.10;;;;;;8325141;28;20225;-78
2022/05/25 15:50:16;;;;;;;2.20;0.43;;;21.30;2.50;;;;;;8319554;28;20197;-81
2022/05/25 15:54:23;;;;;;;1.37;0.60;;;21.30;9.90;;;;;;8334109;28;20240;-77
2022/05/25 15:58:26;;;;;;;1.37;0.43;;;21.20;17.20;;;;;;8335972;28;20229;-78
2022/05/25 16:02:28;;;;;;;2.30;1.47;;;21.10;33.00;;;;;;8330958;28;20189;-77
2022/05/25 16:06:30;;;;;;;3.17;2.20;;;21.20;41.20;;;;;;8336541;28;20214;-77
2022/05/25 16:10:32;;;;;;;1.90;0.67;;;21.30;11.80;;;;;;8328239;28;20173;-76
2022/05/25 16:14:34;;;;;;;1.03;0.60;;;21.20;11.50;;;;;;8327516;28;20190;-76
2022/05/25 16:18:35;;;;;;;1.63;0.37;;;21.10;19.90;;;;;;8319716;28;20197;-79
2022/05/25 16:22:40;;;;;;;3.17;0.77;;;20.90;18.30;;;;;;8341531;28;20171;-77
2022/05/25 16:26:43;;;;;;;1.50;0.53;;;20.80;38.10;;;;;;8319647;28;20233;-76
2022/05/25 16:30:45;;;;;;;1.80;0.53;;;20.80;38.50;;;;;;8332129;28;20201;-76
2022/05/25 16:34:45;;;;;;;2.73;2.00;;;20.70;41.60;;;;;;8347538;28;20181;-77
2022/05/25 16:38:50;;;;;;;1.43;0.80;;;20.50;29.20;;;;;;8356362;28;20304;-77
2022/05/25 16:42:51;;;;;;;1.17;0.60;;;20.40;43.30;;;;;;8330553;28;20271;-76
2022/05/25 16:46:52;;;;;;;2.07;1.10;;;20.20;85.40;;;;;;8324026;28;20244;-77
2022/05/25 16:50:53;;;;;;;3.37;0.60;;;20.10;99.90;;;;;;8334260;28;20242;-76
2022/05/25 16:54:54;;;;;;;1.63;1.23;;;20.20;99.90;;;;;;8339955;28;20222;-78
2022/05/25 16:58:55;;;;;;;2.23;1.80;;;20.30;99.90;;;;;;8334643;28;20215;-76
2022/05/25 17:02:56;;;;;;;1.23;0.90;;;20.40;99.90;;;;;;8333663;28;20196;-78
2022/05/25 17:06:56;;;;;;;2.53;1.10;;;20.40;99.90;;;;;;8353242;28;20181;-77
2022/05/25 17:11:00;;;;;;;1.43;0.93;;;20.50;99.90;;;;;;8331546;28;20189;-78
2022/05/25 17:15:01;;;;;;;1.57;0.60;;;20.50;99.90;;;;;;8325756;28;20240;-77
2022/05/25 17:23:22;;;;;;;3.37;1.33;;;21.80;53.70;;;;;;8344649;28;20231;-81
2022/05/25 17:27:23;;;;;;;1.30;1.17;;;22.60;1.00;;;;;;8336682;28;20186;-76
2022/05/25 17:31:25;;;;;;;1.67;1.57;;;22.40;1.00;;;;;;8331598;28;20206;-76
2022/05/25 17:35:26;;;;;;;2.07;1.27;;;21.70;1.00;;;;;;8351052;28;20186;-76
2022/05/25 17:43:46;;;;;;;1.43;1.00;;;22.20;1.00;;;;;;8347373;28;20233;-76
2022/05/25 17:47:47;;;;;;;2.20;1.57;;;23.00;1.00;;;;;;8339287;28;20186;-75
2022/05/25 17:51:50;;;;;;;1.80;0.60;;;23.40;1.00;;;;;;8334710;28;20217;-80
2022/05/25 17:55:50;;;;;;;1.47;0.80;;;23.00;1.00;;;;;;8325939;28;20190;-80
2022/05/25 17:59:52;;;;;;;1.00;0.70;;;23.00;1.00;;;;;;8348302;28;20256;-76
2022/05/25 18:03:53;;;;;;;3.30;0.80;;;23.00;1.00;;;;;;8333030;28;20218;-75
2022/05/25 18:07:57;;;;;;;4.83;0.80;;;22.50;1.00;;;;;;8343596;28;20190;-78
2022/05/25 18:12:03;;;;;;;0.97;0.63;;;22.60;1.00;;;;;;8329440;28;20186;-76
2022/05/25 18:16:06;;;;;;;1.43;0.70;;;22.10;1.00;;;;;;8328020;28;20213;-75
2022/05/25 18:20:08;;;;;;;2.47;0.80;;;21.50;19.20;;;;;;8350525;28;20186;-75
2022/05/25 18:24:10;;;;;;;1.40;0.90;;;21.00;68.90;;;;;;8334972;28;20298;-78
2022/05/25 18:28:10;;;;;;;1.63;0.93;;;20.70;96.60;;;;;;8351521;28;20238;-78
2022/05/25 18:32:12;;;;;;;1.20;0.80;;;20.20;99.90;;;;;;8330291;28;20178;-77
2022/05/25 18:36:35;;;;;;;3.53;0.63;;;19.60;99.90;;;;;;8330277;28;20186;-75
2022/05/25 18:40:36;;;;;;;1.67;0.77;;;19.40;99.90;;;;;;8322944;28;20206;-77
2022/05/25 18:44:37;;;;;;;1.53;1.17;;;19.00;99.90;;;;;;8335679;28;20216;-75
2022/05/25 18:48:38;;;;;;;2.00;0.77;;;18.40;99.90;;;;;;8333579;28;20233;-79
2022/05/25 18:52:39;;;;;;;1.97;0.70;;;17.90;99.90;;;;;;8333099;28;20185;-81
2022/05/25 18:56:40;;;;;;;1.37;0.97;;;17.50;1.00;;;;;;8335242;28;20183;-80
2022/05/25 19:00:41;;;;;;;1.40;0.93;;;17.10;1.00;;;;;;8325130;28;20193;-81
2022/05/25 19:04:42;;;;;;;2.67;1.20;;;16.80;1.00;;;;;;8335207;28;20273;-75
2022/05/25 19:08:43;;;;;;;1.20;1.00;;;16.60;1.00;;;;;;8331410;28;20182;-76
2022/05/25 19:12:44;;;;;;;2.00;1.00;;;16.30;91.50;;;;;;8337876;28;20209;-78
2022/05/25 19:16:47;;;;;;;1.33;1.03;;;16.10;99.90;;;;;;8323453;28;20182;-76
2022/05/25 19:20:48;;;;;;;2.07;1.07;;;15.90;99.90;;;;;;8345945;28;20182;-76
2022/05/25 19:24:54;;;;;;;1.70;1.23;;;15.70;99.90;;;;;;8323917;28;20313;-79
2022/05/25 19:28:57;;;;;;;1.83;1.23;;;15.60;99.90;;;;;;8324107;28;20197;-79
2022/05/25 19:33:02;;;;;;;3.13;1.57;;;15.40;99.90;;;;;;8304040;28;20225;-80
2022/05/25 19:37:03;;;;;;;2.83;1.57;;;15.30;1.00;;;;;;8332828;28;20178;-80
2022/05/25 19:41:05;;;;;;;5.67;1.43;;;15.10;1.00;;;;;;8328697;28;20198;-80
2022/05/25 19:45:09;;;;;;;3.87;1.97;;;15.00;69.60;;;;;;8323582;28;20214;-79
2022/05/25 19:49:12;;;;;;;3.03;1.93;;;14.80;99.90;;;;;;8323201;28;20190;-79
2022/05/25 19:53:18;;;;;;;2.83;1.93;;;14.80;99.90;;;;;;8333636;28;20212;-78
2022/05/25 19:57:31;;;;;;;2.73;1.63;;;14.70;99.90;;;;;;8326217;28;20193;-79
2022/05/25 20:01:31;;;;;;;2.63;1.60;;;14.60;99.90;;;;;;8341114;28;20222;-79
2022/05/25 20:05:33;;;;;;;2.30;1.70;;;14.50;1.00;;;;;;8328176;28;20498;-79
2022/05/25 20:09:34;;;;;;;2.63;1.70;;;14.40;1.00;;;;;;8342684;28;20187;-80
2022/05/25 20:13:35;;;;;;;2.60;1.70;;;14.30;84.90;;;;;;8332476;28;20216;-78
2022/05/25 20:17:38;;;;;;;1.67;1.40;;;14.20;99.90;;;;;;8326798;28;20221;-79
2022/05/25 20:21:39;;;;;;;3.10;1.70;;;14.20;99.90;;;;;;8321547;28;20237;-79
2022/05/25 20:25:42;;;;;;;2.43;1.70;;;14.10;99.90;;;;;;8336937;28;20216;-79
2022/05/25 20:29:43;;;;;;;2.10;1.27;;;14.10;99.90;;;;;;8315740;28;20234;-78
2022/05/25 20:33:45;;;;;;;1.50;1.13;;;14.10;1.00;;;;;;8326287;28;20185;-79
2022/05/25 20:37:48;;;;;;;2.07;1.43;;;14.10;1.00;;;;;;8325301;28;20186;-79
2022/05/25 20:41:50;;;;;;;1.67;1.47;;;14.00;1.00;;;;;;8343688;28;20206;-78
2022/05/25 20:45:51;;;;;;;1.67;1.30;;;13.90;1.00;;;;;;8323406;28;20206;-79
2022/05/25 20:49:53;;;;;;;2.00;1.30;;;13.80;1.00;;;;;;8315269;28;20190;-79
2022/05/25 20:53:55;;;;;;;1.77;1.40;;;13.70;99.90;;;;;;8343097;28;20216;-79
2022/05/25 20:57:56;;;;;;;1.50;1.40;;;13.70;99.90;;;;;;8330005;28;20177;-78
2022/05/25 21:02:01;;;;;;;1.43;1.33;;;13.70;99.90;;;;;;8331886;28;20194;-79
2022/05/25 21:06:04;;;;;;;1.43;1.33;;;13.60;99.90;;;;;;8327932;28;20216;-78
2022/05/25 21:10:07;;;;;;;1.70;1.47;;;13.40;1.00;;;;;;8333553;28;20189;-78
2022/05/25 21:14:08;;;;;;;2.37;1.40;;;13.30;99.90;;;;;;8325404;28;20190;-79
2022/05/25 21:18:09;;;;;;;2.10;1.57;;;13.20;99.90;;;;;;8332856;28;20280;-78
2022/05/25 21:22:10;;;;;;;1.47;1.37;;;13.10;1.00;;;;;;8336811;28;20310;-78
2022/05/25 21:26:11;;;;;;;1.80;1.40;;;12.90;99.90;;;;;;8333419;28;20279;-78
2022/05/25 21:32:50;;;;;;;2.07;1.70;;;12.80;99.90;;;;;;8339766;28;20261;-78
2022/05/25 21:34:34;;;;;;;1.53;1.30;;;12.80;99.90;;;;;;8346074;28;20251;-79
2022/05/25 21:38:35;;;;;;;2.13;1.50;;;12.70;99.90;;;;;;8340534;28;20220;-78
2022/05/25 21:42:36;;;;;;;1.57;1.30;;;12.60;93.30;;;;;;8328793;28;20295;-80
2022/05/25 21:50:57;;;;;;;1.53;1.33;;;12.30;99.90;;;;;;8348909;28;20646;-79
2022/05/25 21:54:58;;;;;;;2.13;1.93;;;12.10;99.90;;;;;;8328116;28;20185;-78
2022/05/25 21:58:59;;;;;;;3.87;1.80;;;12.00;1.00;;;;;;8336774;28;20245;-78
2022/05/25 22:03:01;;;;;;;2.47;2.00;;;11.90;99.90;;;;;;8329804;28;20194;-78
2022/05/25 22:07:03;;;;;;;5.80;1.90;;;11.80;90.80;;;;;;8346004;28;20182;-77
2022/05/25 22:11:04;;;;;;;3.00;2.37;;;11.60;99.90;;;;;;8336680;28;20203;-78